KSHL

Sheldon Regional Airport

Sheldon, Iowa, USA
METAR KSHL 231055Z AUTO 33016G21KT 5SM BR OVC009 M06/M06 A2999 RMK AO2
Observed Flight Rules
Jan-23 @ 10:55 UTC (an hour ago) Instrument Flight Rules
Wind Visibility Clouds Conditions
330° at 16 knots
 Gusting to 21 knots
5 miles
  • Overcast at 900' AGL
  • Mist
Temperatures Readings
Current -6°C / 21°F
Dewpoint -6°C / 21°F
Humidity 100%
Altimeter 29.99" Hg
Pressure 1016 hPa
Elevation 432
METAR KSHL 231055Z AUTO 33016G21KT 5SM BR OVC009 M06/M06 A2999 RMK AO2
Observed Flight Rules
Jan-23 @ 10:55 UTC
(an hour ago)
IFR
Wind Visibility
330° at 16 knots
 Gusting to 21 knots
5 miles
Clouds
  • Overcast at 900' AGL
Conditions
  • Mist
Temperature Dewpoint
-6°C / 21°F -6°C / 21°F
Humidity Altimeter Pressure
100% 29.99" Hg 1016 hPa